sensor_id;sensor_type;location;lat;lon;timestamp;pressure;altitude;pressure_sealevel;temperature;humidity
56400;BME280;42298;53.638;9.876;2024-01-15T00:00:13;99839.94;;;2.05;100.00
56400;BME280;42298;53.638;9.876;2024-01-15T00:02:38;99853.56;;;2.11;100.00
56400;BME280;42298;53.638;9.876;2024-01-15T00:05:04;99836.13;;;2.10;100.00
56400;BME280;42298;53.638;9.876;2024-01-15T00:07:30;99818.13;;;2.05;100.00
56400;BME280;42298;53.638;9.876;2024-01-15T00:09:55;99808.44;;;2.05;100.00
56400;BME280;42298;53.638;9.876;2024-01-15T00:12:20;99835.03;;;2.12;100.00
56400;BME280;42298;53.638;9.876;2024-01-15T00:14:46;99790.19;;;2.04;100.00
56400;BME280;42298;53.638;9.876;2024-01-15T00:17:11;99785.88;;;2.03;100.00
56400;BME280;42298;53.638;9.876;2024-01-15T00:19:36;99772.75;;;2.03;100.00
56400;BME280;42298;53.638;9.876;2024-01-15T00:22:02;99764.16;;;2.01;100.00
56400;BME280;42298;53.638;9.876;2024-01-15T00:24:27;99777.88;;;2.04;100.00
56400;BME280;42298;53.638;9.876;2024-01-15T00:26:52;99799.28;;;2.00;100.00
56400;BME280;42298;53.638;9.876;2024-01-15T00:29:18;99803.56;;;2.01;100.00
56400;BME280;42298;53.638;9.876;2024-01-15T00:31:44;99801.25;;;2.07;100.00
56400;BME280;42298;53.638;9.876;2024-01-15T00:34:09;99807.59;;;2.05;100.00
56400;BME280;42298;53.638;9.876;2024-01-15T00:36:35;99780.91;;;2.00;100.00
56400;BME280;42298;53.638;9.876;2024-01-15T00:39:01;99789.94;;;2.07;100.00
56400;BME280;42298;53.638;9.876;2024-01-15T00:41:26;99817.59;;;2.11;100.00
56400;BME280;42298;53.638;9.876;2024-01-15T00:43:53;99864.78;;;2.13;100.00
56400;BME280;42298;53.638;9.876;2024-01-15T00:46:18;99864.91;;;2.11;100.00
56400;BME280;42298;53.638;9.876;2024-01-15T00:48:44;99844.81;;;2.10;100.00
56400;BME280;42298;53.638;9.876;2024-01-15T00:51:09;99822.03;;;2.11;100.00
56400;BME280;42298;53.638;9.876;2024-01-15T00:53:35;99766.25;;;1.97;100.00
56400;BME280;42298;53.638;9.876;2024-01-15T00:56:00;99754.44;;;1.92;100.00
56400;BME280;42298;53.638;9.876;2024-01-15T00:58:26;99748.38;;;1.91;100.00
56400;BME280;42298;53.638;9.876;2024-01-15T01:00:52;99732.84;;;1.88;100.00
56400;BME280;42298;53.638;9.876;2024-01-15T01:03:17;99751.94;;;1.90;100.00
56400;BME280;42298;53.638;9.876;2024-01-15T01:05:43;99765.22;;;1.89;100.00
56400;BME280;42298;53.638;9.876;2024-01-15T01:08:09;99793.84;;;1.92;100.00
56400;BME280;42298;53.638;9.876;2024-01-15T01:10:34;99820.53;;;1.97;100.00
56400;BME280;42298;53.638;9.876;2024-01-15T01:13:00;99819.72;;;1.96;100.00
56400;BME280;42298;53.638;9.876;2024-01-15T01:15:25;99852.91;;;1.97;100.00
56400;BME280;42298;53.638;9.876;2024-01-15T01:17:51;99879.34;;;2.05;100.00
56400;BME280;42298;53.638;9.876;2024-01-15T01:20:16;99903.72;;;2.07;100.00
56400;BME280;42298;53.638;9.876;2024-01-15T01:22:41;99918.38;;;2.10;100.00
56400;BME280;42298;53.638;9.876;2024-01-15T01:25:07;99936.16;;;2.18;100.00
56400;BME280;42298;53.638;9.876;2024-01-15T01:27:33;99971.47;;;2.25;100.00
56400;BME280;42298;53.638;9.876;2024-01-15T01:29:58;99962.88;;;2.23;100.00
56400;BME280;42298;53.638;9.876;2024-01-15T01:32:24;99893.28;;;2.17;100.00
56400;BME280;42298;53.638;9.876;2024-01-15T01:34:49;99938.72;;;2.29;100.00
56400;BME280;42298;53.638;9.876;2024-01-15T01:37:14;99983.72;;;2.36;100.00
56400;BME280;42298;53.638;9.876;2024-01-15T01:39:41;99985.97;;;2.40;100.00
56400;BME280;42298;53.638;9.876;2024-01-15T01:42:06;99980.72;;;2.40;100.00
56400;BME280;42298;53.638;9.876;2024-01-15T01:44:32;99972.56;;;2.43;100.00
56400;BME280;42298;53.638;9.876;2024-01-15T01:46:58;99935.09;;;2.41;100.00
56400;BME280;42298;53.638;9.876;2024-01-15T01:49:25;99930.66;;;2.42;100.00
56400;BME280;42298;53.638;9.876;2024-01-15T01:51:50;99901.88;;;2.40;100.00
56400;BME280;42298;53.638;9.876;2024-01-15T01:54:17;99900.78;;;2.43;100.00
56400;BME280;42298;53.638;9.876;2024-01-15T01:56:43;99898.97;;;2.43;100.00
56400;BME280;42298;53.638;9.876;2024-01-15T01:59:09;99891.09;;;2.43;100.00
56400;BME280;42298;53.638;9.876;2024-01-15T02:01:36;99918.56;;;2.51;100.00
56400;BME280;42298;53.638;9.876;2024-01-15T02:04:02;99880.34;;;2.46;100.00
56400;BME280;42298;53.638;9.876;2024-01-15T02:06:28;99834.25;;;2.42;100.00
56400;BME280;42298;53.638;9.876;2024-01-15T02:08:53;99807.38;;;2.39;100.00
56400;BME280;42298;53.638;9.876;2024-01-15T02:11:19;99793.41;;;2.38;100.00
56400;BME280;42298;53.638;9.876;2024-01-15T02:13:45;99764.59;;;2.27;100.00
56400;BME280;42298;53.638;9.876;2024-01-15T02:16:10;99745.47;;;2.15;100.00
56400;BME280;42298;53.638;9.876;2024-01-15T02:18:42;99751.81;;;2.13;100.00
56400;BME280;42298;53.638;9.876;2024-01-15T02:21:08;99765.06;;;2.11;100.00
56400;BME280;42298;53.638;9.876;2024-01-15T02:23:34;99747.91;;;2.07;100.00
56400;BME280;42298;53.638;9.876;2024-01-15T02:25:59;99759.00;;;2.11;100.00
56400;BME280;42298;53.638;9.876;2024-01-15T02:28:24;99754.56;;;2.11;100.00
56400;BME280;42298;53.638;9.876;2024-01-15T02:30:50;99784.16;;;2.13;100.00
56400;BME280;42298;53.638;9.876;2024-01-15T02:33:15;99807.66;;;2.15;100.00
56400;BME280;42298;53.638;9.876;2024-01-15T02:35:40;99854.72;;;2.18;100.00
56400;BME280;42298;53.638;9.876;2024-01-15T02:38:06;99893.16;;;2.19;100.00
56400;BME280;42298;53.638;9.876;2024-01-15T02:40:32;99952.59;;;2.31;100.00
56400;BME280;42298;53.638;9.876;2024-01-15T02:42:57;99965.94;;;2.28;100.00
56400;BME280;42298;53.638;9.876;2024-01-15T02:45:23;99973.84;;;2.28;100.00
56400;BME280;42298;53.638;9.876;2024-01-15T02:47:49;99949.13;;;2.31;100.00
56400;BME280;42298;53.638;9.876;2024-01-15T02:50:14;99976.47;;;2.28;100.00
56400;BME280;42298;53.638;9.876;2024-01-15T02:52:41;99960.69;;;2.28;100.00
56400;BME280;42298;53.638;9.876;2024-01-15T02:55:07;100016.09;;;2.36;100.00
56400;BME280;42298;53.638;9.876;2024-01-15T02:57:32;99994.50;;;2.33;100.00
56400;BME280;42298;53.638;9.876;2024-01-15T02:59:58;100027.59;;;2.35;100.00
56400;BME280;42298;53.638;9.876;2024-01-15T03:02:23;100045.97;;;2.35;100.00
56400;BME280;42298;53.638;9.876;2024-01-15T03:04:48;100084.56;;;2.35;100.00
56400;BME280;42298;53.638;9.876;2024-01-15T03:07:14;100094.00;;;2.37;100.00
56400;BME280;42298;53.638;9.876;2024-01-15T03:09:39;100094.13;;;2.36;100.00
56400;BME280;42298;53.638;9.876;2024-01-15T03:12:04;100098.19;;;2.40;100.00
56400;BME280;42298;53.638;9.876;2024-01-15T03:14:30;100115.59;;;2.41;100.00
56400;BME280;42298;53.638;9.876;2024-01-15T03:16:55;100103.53;;;2.38;100.00
56400;BME280;42298;53.638;9.876;2024-01-15T03:19:20;100137.94;;;2.46;100.00
56400;BME280;42298;53.638;9.876;2024-01-15T03:21:46;100144.16;;;2.45;100.00
56400;BME280;42298;53.638;9.876;2024-01-15T03:24:11;100162.88;;;2.52;100.00
56400;BME280;42298;53.638;9.876;2024-01-15T03:26:36;100152.25;;;2.54;100.00
56400;BME280;42298;53.638;9.876;2024-01-15T03:29:02;100111.28;;;2.51;100.00
56400;BME280;42298;53.638;9.876;2024-01-15T03:31:27;100095.88;;;2.46;100.00
56400;BME280;42298;53.638;9.876;2024-01-15T03:33:52;100072.22;;;2.46;100.00
56400;BME280;42298;53.638;9.876;2024-01-15T03:36:18;100079.84;;;2.49;100.00
56400;BME280;42298;53.638;9.876;2024-01-15T03:38:43;100048.69;;;2.45;100.00
56400;BME280;42298;53.638;9.876;2024-01-15T03:41:08;100112.22;;;2.61;100.00
56400;BME280;42298;53.638;9.876;2024-01-15T03:43:34;100059.16;;;2.56;100.00
56400;BME280;42298;53.638;9.876;2024-01-15T03:45:59;100017.59;;;2.50;100.00
56400;BME280;42298;53.638;9.876;2024-01-15T03:48:25;100000.50;;;2.56;100.00
56400;BME280;42298;53.638;9.876;2024-01-15T03:50:50;99972.78;;;2.52;100.00
56400;BME280;42298;53.638;9.876;2024-01-15T03:53:15;99951.97;;;2.60;100.00
56400;BME280;42298;53.638;9.876;2024-01-15T03:55:40;99913.84;;;2.54;100.00
56400;BME280;42298;53.638;9.876;2024-01-15T03:58:06;99874.41;;;2.54;100.00
56400;BME280;42298;53.638;9.876;2024-01-15T04:00:31;99844.78;;;2.52;100.00
56400;BME280;42298;53.638;9.876;2024-01-15T04:02:56;99798.88;;;2.56;100.00
56400;BME280;42298;53.638;9.876;2024-01-15T04:05:22;99752.78;;;2.52;100.00
56400;BME280;42298;53.638;9.876;2024-01-15T04:07:47;99707.28;;;2.52;100.00
56400;BME280;42298;53.638;9.876;2024-01-15T04:10:12;99748.25;;;2.54;100.00
56400;BME280;42298;53.638;9.876;2024-01-15T04:12:38;99677.25;;;2.54;100.00
56400;BME280;42298;53.638;9.876;2024-01-15T04:15:03;99617.78;;;2.53;100.00
56400;BME280;42298;53.638;9.876;2024-01-15T04:17:29;99575.19;;;2.59;100.00
56400;BME280;42298;53.638;9.876;2024-01-15T04:19:54;99524.38;;;2.59;100.00
56400;BME280;42298;53.638;9.876;2024-01-15T04:22:19;99473.47;;;2.60;100.00
56400;BME280;42298;53.638;9.876;2024-01-15T04:24:45;99450.09;;;2.66;100.00
56400;BME280;42298;53.638;9.876;2024-01-15T04:27:11;99422.97;;;2.66;100.00
56400;BME280;42298;53.638;9.876;2024-01-15T04:29:39;99382.56;;;2.67;100.00
56400;BME280;42298;53.638;9.876;2024-01-15T04:32:05;99352.50;;;2.69;100.00
56400;BME280;42298;53.638;9.876;2024-01-15T04:34:31;99320.44;;;2.66;100.00
56400;BME280;42298;53.638;9.876;2024-01-15T04:36:56;99287.47;;;2.72;100.00
56400;BME280;42298;53.638;9.876;2024-01-15T04:39:22;99271.25;;;2.76;100.00
56400;BME280;42298;53.638;9.876;2024-01-15T04:41:47;99259.47;;;2.80;100.00
56400;BME280;42298;53.638;9.876;2024-01-15T04:44:13;99265.66;;;2.89;100.00
56400;BME280;42298;53.638;9.876;2024-01-15T04:46:38;99236.03;;;2.87;100.00
56400;BME280;42298;53.638;9.876;2024-01-15T04:49:03;99221.47;;;2.93;100.00
56400;BME280;42298;53.638;9.876;2024-01-15T04:51:29;99210.97;;;2.93;100.00
56400;BME280;42298;53.638;9.876;2024-01-15T04:53:54;99193.75;;;2.98;100.00
56400;BME280;42298;53.638;9.876;2024-01-15T04:56:19;99188.72;;;3.05;100.00
56400;BME280;42298;53.638;9.876;2024-01-15T04:58:45;99160.78;;;3.04;100.00
56400;BME280;42298;53.638;9.876;2024-01-15T05:01:10;99150.06;;;3.05;100.00
56400;BME280;42298;53.638;9.876;2024-01-15T05:03:36;99132.88;;;3.11;100.00
56400;BME280;42298;53.638;9.876;2024-01-15T05:06:07;99127.00;;;3.17;100.00
56400;BME280;42298;53.638;9.876;2024-01-15T05:08:32;99097.06;;;3.18;100.00
56400;BME280;42298;53.638;9.876;2024-01-15T05:10:58;99052.72;;;3.23;100.00
56400;BME280;42298;53.638;9.876;2024-01-15T05:13:23;98952.06;;;3.21;100.00
56400;BME280;42298;53.638;9.876;2024-01-15T05:15:48;98860.28;;;3.18;100.00
56400;BME280;42298;53.638;9.876;2024-01-15T05:18:14;98833.50;;;3.15;100.00
56400;BME280;42298;53.638;9.876;2024-01-15T05:20:39;98769.03;;;3.19;100.00
56400;BME280;42298;53.638;9.876;2024-01-15T05:23:04;98728.75;;;3.18;100.00
56400;BME280;42298;53.638;9.876;2024-01-15T05:25:29;98689.78;;;3.14;100.00
56400;BME280;42298;53.638;9.876;2024-01-15T05:27:55;98647.03;;;3.11;100.00
56400;BME280;42298;53.638;9.876;2024-01-15T05:30:20;98631.59;;;3.08;100.00
56400;BME280;42298;53.638;9.876;2024-01-15T05:32:45;98627.78;;;3.11;100.00
56400;BME280;42298;53.638;9.876;2024-01-15T05:35:11;98624.00;;;3.05;100.00
56400;BME280;42298;53.638;9.876;2024-01-15T05:37:36;98604.97;;;3.03;100.00
56400;BME280;42298;53.638;9.876;2024-01-15T05:40:01;98636.19;;;3.15;100.00
56400;BME280;42298;53.638;9.876;2024-01-15T05:42:29;98651.78;;;3.16;100.00
56400;BME280;42298;53.638;9.876;2024-01-15T05:44:55;98642.13;;;3.17;100.00
56400;BME280;42298;53.638;9.876;2024-01-15T05:47:21;98621.72;;;3.10;100.00
56400;BME280;42298;53.638;9.876;2024-01-15T05:49:48;98624.34;;;3.10;100.00
56400;BME280;42298;53.638;9.876;2024-01-15T05:52:13;98620.91;;;3.10;100.00
56400;BME280;42298;53.638;9.876;2024-01-15T05:54:38;98631.44;;;3.10;100.00
56400;BME280;42298;53.638;9.876;2024-01-15T05:57:04;98624.66;;;3.07;100.00
56400;BME280;42298;53.638;9.876;2024-01-15T05:59:29;98686.34;;;3.21;100.00
56400;BME280;42298;53.638;9.876;2024-01-15T06:01:57;98660.34;;;3.18;100.00
56400;BME280;42298;53.638;9.876;2024-01-15T06:04:22;98644.25;;;3.13;100.00
56400;BME280;42298;53.638;9.876;2024-01-15T06:06:48;98650.31;;;3.22;100.00
56400;BME280;42298;53.638;9.876;2024-01-15T06:09:13;98654.91;;;3.36;100.00
56400;BME280;42298;53.638;9.876;2024-01-15T06:11:39;98638.66;;;3.33;100.00
56400;BME280;42298;53.638;9.876;2024-01-15T06:14:04;98601.47;;;3.27;100.00
56400;BME280;42298;53.638;9.876;2024-01-15T06:16:30;98581.44;;;3.26;100.00
56400;BME280;42298;53.638;9.876;2024-01-15T06:18:55;98542.63;;;3.28;100.00
56400;BME280;42298;53.638;9.876;2024-01-15T06:21:20;98518.78;;;3.22;100.00
56400;BME280;42298;53.638;9.876;2024-01-15T06:23:46;98487.69;;;3.25;100.00
56400;BME280;42298;53.638;9.876;2024-01-15T06:26:12;98466.97;;;3.22;100.00
56400;BME280;42298;53.638;9.876;2024-01-15T06:28:37;98441.69;;;3.21;100.00
56400;BME280;42298;53.638;9.876;2024-01-15T06:31:02;98424.72;;;3.24;100.00
56400;BME280;42298;53.638;9.876;2024-01-15T06:33:28;98392.97;;;3.25;100.00
56400;BME280;42298;53.638;9.876;2024-01-15T06:35:53;98356.13;;;3.25;100.00
56400;BME280;42298;53.638;9.876;2024-01-15T06:38:19;98303.53;;;3.25;100.00
56400;BME280;42298;53.638;9.876;2024-01-15T06:40:44;98261.13;;;3.20;100.00
56400;BME280;42298;53.638;9.876;2024-01-15T06:43:14;98231.91;;;3.15;100.00
56400;BME280;42298;53.638;9.876;2024-01-15T06:45:40;98216.59;;;3.19;100.00
56400;BME280;42298;53.638;9.876;2024-01-15T06:48:07;98196.38;;;3.19;100.00
56400;BME280;42298;53.638;9.876;2024-01-15T06:50:33;98141.78;;;3.21;100.00
56400;BME280;42298;53.638;9.876;2024-01-15T06:52:58;98134.16;;;3.26;100.00
56400;BME280;42298;53.638;9.876;2024-01-15T06:55:25;98113.28;;;3.25;100.00
56400;BME280;42298;53.638;9.876;2024-01-15T06:57:51;98098.69;;;3.22;100.00
56400;BME280;42298;53.638;9.876;2024-01-15T07:00:17;98085.53;;;3.22;100.00
56400;BME280;42298;53.638;9.876;2024-01-15T07:02:44;98093.06;;;3.25;100.00
56400;BME280;42298;53.638;9.876;2024-01-15T07:05:10;98071.31;;;3.31;100.00
56400;BME280;42298;53.638;9.876;2024-01-15T07:07:36;98222.28;;;3.30;100.00
56400;BME280;42298;53.638;9.876;2024-01-15T07:10:01;98152.47;;;3.20;100.00
56400;BME280;42298;53.638;9.876;2024-01-15T07:12:27;98133.25;;;3.19;100.00
56400;BME280;42298;53.638;9.876;2024-01-15T07:14:52;98115.66;;;3.20;100.00
56400;BME280;42298;53.638;9.876;2024-01-15T07:17:17;98106.00;;;3.12;100.00
56400;BME280;42298;53.638;9.876;2024-01-15T07:19:43;98087.66;;;3.04;100.00
56400;BME280;42298;53.638;9.876;2024-01-15T07:22:09;98101.75;;;3.11;100.00
56400;BME280;42298;53.638;9.876;2024-01-15T07:24:35;98091.59;;;3.08;100.00
56400;BME280;42298;53.638;9.876;2024-01-15T07:27:01;98097.28;;;3.11;100.00
56400;BME280;42298;53.638;9.876;2024-01-15T07:29:26;98072.00;;;3.10;100.00
56400;BME280;42298;53.638;9.876;2024-01-15T07:31:52;98045.50;;;2.97;100.00
56400;BME280;42298;53.638;9.876;2024-01-15T07:34:18;98049.19;;;3.03;100.00
56400;BME280;42298;53.638;9.876;2024-01-15T07:36:44;98037.34;;;3.07;100.00
56400;BME280;42298;53.638;9.876;2024-01-15T07:39:10;98044.25;;;3.08;100.00
56400;BME280;42298;53.638;9.876;2024-01-15T07:41:35;98026.81;;;3.07;100.00
56400;BME280;42298;53.638;9.876;2024-01-15T07:44:01;98014.69;;;3.06;100.00
56400;BME280;42298;53.638;9.876;2024-01-15T07:46:27;97991.09;;;2.98;100.00
56400;BME280;42298;53.638;9.876;2024-01-15T07:48:52;98000.78;;;2.97;100.00
56400;BME280;42298;53.638;9.876;2024-01-15T07:51:22;98006.50;;;3.01;100.00
56400;BME280;42298;53.638;9.876;2024-01-15T07:53:47;97991.09;;;2.98;100.00
56400;BME280;42298;53.638;9.876;2024-01-15T07:56:12;98006.16;;;3.04;100.00
56400;BME280;42298;53.638;9.876;2024-01-15T07:58:38;98005.94;;;3.05;100.00
56400;BME280;42298;53.638;9.876;2024-01-15T08:01:03;97986.50;;;3.15;100.00
56400;BME280;42298;53.638;9.876;2024-01-15T08:03:28;97990.91;;;3.14;100.00
56400;BME280;42298;53.638;9.876;2024-01-15T08:05:54;97978.66;;;3.06;100.00
56400;BME280;42298;53.638;9.876;2024-01-15T08:08:20;97987.03;;;3.10;100.00
56400;BME280;42298;53.638;9.876;2024-01-15T08:10:49;97990.75;;;3.16;100.00
56400;BME280;42298;53.638;9.876;2024-01-15T08:13:14;97993.75;;;3.13;100.00
56400;BME280;42298;53.638;9.876;2024-01-15T08:15:41;97984.75;;;3.07;100.00
56400;BME280;42298;53.638;9.876;2024-01-15T08:18:06;97995.91;;;3.09;100.00
56400;BME280;42298;53.638;9.876;2024-01-15T08:20:32;98005.59;;;3.08;100.00
56400;BME280;42298;53.638;9.876;2024-01-15T08:22:57;98019.56;;;3.09;100.00
56400;BME280;42298;53.638;9.876;2024-01-15T08:25:23;98024.47;;;3.12;100.00
56400;BME280;42298;53.638;9.876;2024-01-15T08:27:49;98027.28;;;3.10;100.00
56400;BME280;42298;53.638;9.876;2024-01-15T08:30:14;98056.38;;;3.09;100.00
56400;BME280;42298;53.638;9.876;2024-01-15T08:32:40;98071.19;;;3.10;100.00
56400;BME280;42298;53.638;9.876;2024-01-15T08:35:08;98080.75;;;3.03;100.00
56400;BME280;42298;53.638;9.876;2024-01-15T08:37:34;98092.28;;;3.02;100.00
56400;BME280;42298;53.638;9.876;2024-01-15T08:40:00;98117.53;;;3.11;100.00
56400;BME280;42298;53.638;9.876;2024-01-15T08:42:25;98130.66;;;3.11;100.00
56400;BME280;42298;53.638;9.876;2024-01-15T08:44:50;98131.19;;;3.06;100.00
56400;BME280;42298;53.638;9.876;2024-01-15T08:47:16;98143.44;;;2.99;100.00
56400;BME280;42298;53.638;9.876;2024-01-15T08:49:42;98162.00;;;2.98;100.00
56400;BME280;42298;53.638;9.876;2024-01-15T08:52:09;98160.06;;;2.92;100.00
56400;BME280;42298;53.638;9.876;2024-01-15T08:54:34;98184.72;;;2.90;100.00
56400;BME280;42298;53.638;9.876;2024-01-15T08:57:00;98184.41;;;2.85;100.00
56400;BME280;42298;53.638;9.876;2024-01-15T08:59:25;98202.53;;;2.80;100.00
56400;BME280;42298;53.638;9.876;2024-01-15T09:01:52;98223.41;;;2.74;100.00
56400;BME280;42298;53.638;9.876;2024-01-15T09:04:18;98227.56;;;2.68;100.00
56400;BME280;42298;53.638;9.876;2024-01-15T09:06:46;98240.38;;;2.63;100.00
56400;BME280;42298;53.638;9.876;2024-01-15T09:09:14;98265.84;;;2.62;100.00
56400;BME280;42298;53.638;9.876;2024-01-15T09:11:41;98300.19;;;2.61;100.00
56400;BME280;42298;53.638;9.876;2024-01-15T09:14:07;98327.63;;;2.58;100.00
56400;BME280;42298;53.638;9.876;2024-01-15T09:16:33;98392.16;;;2.69;100.00
56400;BME280;42298;53.638;9.876;2024-01-15T09:18:58;98415.50;;;2.64;100.00
56400;BME280;42298;53.638;9.876;2024-01-15T09:21:24;98434.88;;;2.63;100.00
56400;BME280;42298;53.638;9.876;2024-01-15T09:23:52;98498.31;;;2.68;100.00
56400;BME280;42298;53.638;9.876;2024-01-15T09:26:17;98556.78;;;2.62;100.00
56400;BME280;42298;53.638;9.876;2024-01-15T09:28:43;98625.63;;;2.74;100.00
56400;BME280;42298;53.638;9.876;2024-01-15T09:31:08;98679.19;;;2.73;100.00
56400;BME280;42298;53.638;9.876;2024-01-15T09:33:34;98730.63;;;2.75;100.00
56400;BME280;42298;53.638;9.876;2024-01-15T09:36:03;98781.88;;;2.71;100.00
56400;BME280;42298;53.638;9.876;2024-01-15T09:38:29;98829.25;;;2.79;100.00
56400;BME280;42298;53.638;9.876;2024-01-15T09:40:55;98831.00;;;2.71;100.00
56400;BME280;42298;53.638;9.876;2024-01-15T09:43:21;98828.44;;;2.53;100.00
56400;BME280;42298;53.638;9.876;2024-01-15T09:45:49;98854.06;;;2.51;100.00
56400;BME280;42298;53.638;9.876;2024-01-15T09:48:15;98884.91;;;2.48;100.00
56400;BME280;42298;53.638;9.876;2024-01-15T09:50:41;98909.16;;;2.42;100.00
56400;BME280;42298;53.638;9.876;2024-01-15T09:53:07;98909.28;;;2.33;100.00
56400;BME280;42298;53.638;9.876;2024-01-15T09:55:38;98929.44;;;2.32;100.00
56400;BME280;42298;53.638;9.876;2024-01-15T09:58:03;98937.56;;;2.21;100.00
56400;BME280;42298;53.638;9.876;2024-01-15T10:00:29;98936.22;;;2.17;100.00
56400;BME280;42298;53.638;9.876;2024-01-15T10:02:58;98975.47;;;2.18;100.00
56400;BME280;42298;53.638;9.876;2024-01-15T10:05:26;98991.13;;;2.10;100.00
56400;BME280;42298;53.638;9.876;2024-01-15T10:07:53;99048.06;;;2.19;100.00
56400;BME280;42298;53.638;9.876;2024-01-15T10:10:19;99097.13;;;2.19;100.00
56400;BME280;42298;53.638;9.876;2024-01-15T10:12:47;99146.06;;;2.20;100.00
56400;BME280;42298;53.638;9.876;2024-01-15T10:15:13;99186.84;;;2.24;100.00
56400;BME280;42298;53.638;9.876;2024-01-15T10:17:39;99226.09;;;2.25;100.00
56400;BME280;42298;53.638;9.876;2024-01-15T10:20:11;99263.00;;;2.34;100.00
56400;BME280;42298;53.638;9.876;2024-01-15T10:22:44;99245.16;;;2.27;100.00
56400;BME280;42298;53.638;9.876;2024-01-15T10:25:12;99319.69;;;2.36;100.00
56400;BME280;42298;53.638;9.876;2024-01-15T10:27:38;99363.78;;;2.42;100.00
56400;BME280;42298;53.638;9.876;2024-01-15T10:30:04;99391.31;;;2.38;100.00
56400;BME280;42298;53.638;9.876;2024-01-15T10:32:30;99424.66;;;2.47;100.00
56400;BME280;42298;53.638;9.876;2024-01-15T10:34:55;99451.78;;;2.48;100.00
56400;BME280;42298;53.638;9.876;2024-01-15T10:37:21;99473.88;;;2.45;100.00
56400;BME280;42298;53.638;9.876;2024-01-15T10:39:49;99481.94;;;2.44;100.00
56400;BME280;42298;53.638;9.876;2024-01-15T10:42:14;99466.44;;;2.31;100.00
56400;BME280;42298;53.638;9.876;2024-01-15T10:44:41;99473.91;;;2.36;100.00
56400;BME280;42298;53.638;9.876;2024-01-15T10:47:08;99464.38;;;2.35;100.00
56400;BME280;42298;53.638;9.876;2024-01-15T10:49:34;99490.38;;;2.38;100.00
56400;BME280;42298;53.638;9.876;2024-01-15T10:52:01;99520.09;;;2.38;100.00
56400;BME280;42298;53.638;9.876;2024-01-15T10:54:27;99508.19;;;2.34;100.00
56400;BME280;42298;53.638;9.876;2024-01-15T10:56:53;99497.97;;;2.31;100.00
56400;BME280;42298;53.638;9.876;2024-01-15T10:59:21;99516.38;;;2.31;100.00
56400;BME280;42298;53.638;9.876;2024-01-15T11:01:49;99544.16;;;2.34;100.00
56400;BME280;42298;53.638;9.876;2024-01-15T11:04:14;99565.06;;;2.35;100.00
56400;BME280;42298;53.638;9.876;2024-01-15T11:06:49;99597.00;;;2.40;100.00
56400;BME280;42298;53.638;9.876;2024-01-15T11:09:15;99627.03;;;2.47;100.00
56400;BME280;42298;53.638;9.876;2024-01-15T11:11:46;99645.31;;;2.49;100.00
56400;BME280;42298;53.638;9.876;2024-01-15T11:17:03;99677.25;;;2.54;100.00
56400;BME280;42298;53.638;9.876;2024-01-15T11:22:03;99695.13;;;2.51;100.00
56400;BME280;42298;53.638;9.876;2024-01-15T11:24:36;99707.28;;;2.52;100.00
56400;BME280;42298;53.638;9.876;2024-01-15T11:27:02;99678.66;;;2.48;100.00
56400;BME280;42298;53.638;9.876;2024-01-15T11:32:01;99722.69;;;2.66;100.00
56400;BME280;42298;53.638;9.876;2024-01-15T11:34:55;99754.78;;;2.69;100.00
56400;BME280;42298;53.638;9.876;2024-01-15T11:37:23;99754.25;;;2.66;100.00
56400;BME280;42298;53.638;9.876;2024-01-15T11:39:53;99758.94;;;2.62;100.00
56400;BME280;42298;53.638;9.876;2024-01-15T11:42:20;99728.72;;;2.57;100.00
56400;BME280;42298;53.638;9.876;2024-01-15T11:44:47;99734.56;;;2.60;100.00
56400;BME280;42298;53.638;9.876;2024-01-15T11:47:12;99709.38;;;2.58;100.00
56400;BME280;42298;53.638;9.876;2024-01-15T11:50:00;99705.06;;;2.57;100.00
56400;BME280;42298;53.638;9.876;2024-01-15T11:52:38;99690.41;;;2.54;100.00
56400;BME280;42298;53.638;9.876;2024-01-15T11:55:24;99728.34;;;2.61;100.00
56400;BME280;42298;53.638;9.876;2024-01-15T11:57:53;99704.41;;;2.55;100.00
56400;BME280;42298;53.638;9.876;2024-01-15T12:00:22;99712.72;;;2.60;100.00
56400;BME280;42298;53.638;9.876;2024-01-15T12:02:48;99712.97;;;2.57;100.00
56400;BME280;42298;53.638;9.876;2024-01-15T12:05:17;99717.13;;;2.59;100.00
56400;BME280;42298;53.638;9.876;2024-01-15T12:07:44;99702.59;;;2.55;100.00
56400;BME280;42298;53.638;9.876;2024-01-15T12:10:12;99690.97;;;2.48;100.00
56400;BME280;42298;53.638;9.876;2024-01-15T12:12:57;99701.78;;;2.55;100.00
56400;BME280;42298;53.638;9.876;2024-01-15T12:15:28;99695.81;;;2.53;100.00
56400;BME280;42298;53.638;9.876;2024-01-15T12:17:59;99683.19;;;2.46;100.00
56400;BME280;42298;53.638;9.876;2024-01-15T12:20:25;99673.63;;;2.45;100.00
56400;BME280;42298;53.638;9.876;2024-01-15T12:22:51;99665.06;;;2.43;100.00
56400;BME280;42298;53.638;9.876;2024-01-15T12:25:16;99650.97;;;2.44;100.00
56400;BME280;42298;53.638;9.876;2024-01-15T12:27:42;99650.13;;;2.44;100.00
56400;BME280;42298;53.638;9.876;2024-01-15T12:30:10;99655.94;;;2.47;100.00
56400;BME280;42298;53.638;9.876;2024-01-15T12:32:36;99665.63;;;2.47;100.00
56400;BME280;42298;53.638;9.876;2024-01-15T12:35:02;99666.31;;;2.49;100.00
56400;BME280;42298;53.638;9.876;2024-01-15T12:37:29;99661.91;;;2.49;100.00
56400;BME280;42298;53.638;9.876;2024-01-15T12:39:54;99652.63;;;2.45;100.00
56400;BME280;42298;53.638;9.876;2024-01-15T12:42:21;99647.34;;;2.45;100.00
56400;BME280;42298;53.638;9.876;2024-01-15T12:44:46;99648.22;;;2.46;100.00
56400;BME280;42298;53.638;9.876;2024-01-15T12:47:12;99641.41;;;2.43;100.00
56400;BME280;42298;53.638;9.876;2024-01-15T12:49:38;99636.16;;;2.43;100.00
56400;BME280;42298;53.638;9.876;2024-01-15T12:52:08;99650.56;;;2.49;100.00
56400;BME280;42298;53.638;9.876;2024-01-15T12:54:33;99651.53;;;2.48;100.00
56400;BME280;42298;53.638;9.876;2024-01-15T12:56:58;99649.97;;;2.45;100.00
56400;BME280;42298;53.638;9.876;2024-01-15T12:59:24;99632.84;;;2.41;100.00
56400;BME280;42298;53.638;9.876;2024-01-15T13:01:49;99641.84;;;2.48;100.00